Golden Princess — ZCDA9 — position and weather

sailwx.info

Track history (hours):
 
Tides and Currents Weather Stations Pressure Air Temp Water Temp Dewpoint Dewpoint Depression Visibility Wind Speed Wind Dir Waves Ship Positions

Golden Princess

Operator: Princess Cruises

Last reported at 2015-Jun-30 02:33 UTC. Time now 2015-Jun-30 03:26 UTC.
Position N 48°08' W 125°16'.

Length 289.6 m; beam 36 m; draft 8.5 m.

Type: Ship. MMSI: 310344000.

Date/timePositionNaut miles runAvg speedWind from/ knotsBaromVisibWave heightAir tempDewpointWater temp
2015-Jun-30 02:33N 48°08' W 125°16'2120.9
2015-Jun-30 01:33N 48°28' W 125°05'2020.2
2015-Jun-30 00:33N 48°28' W 124°35'2020.1
2015-Jun-29 23:33N 48°20' W 124°07'1717.4
2015-Jun-29 22:33N 48°16' W 123°41'1212.1
2015-Jun-29 21:34N 48°22' W 123°25'3 3.3
2015-Jun-29 20:30N 48°25' W 123°24'0 0.0
2015-Jun-29 19:30N 48°25' W 123°24'0 0.0
2015-Jun-29 18:33N 48°25' W 123°24'0 0.0
2015-Jun-29 17:32N 48°25' W 123°24'0 0.0
2015-Jun-29 16:32N 48°25' W 123°24'0 0.0
2015-Jun-29 15:33N 48°25' W 123°24'0 0.0
2015-Jun-29 14:31N 48°25' W 123°24'0 0.2
2015-Jun-29 13:33N 48°25' W 123°24'9 8.6
2015-Jun-29 12:33N 48°16' W 123°26'1616.2
2015-Jun-29 11:33N 48°13' W 123°50'1717.4
2015-Jun-29 10:33N 48°20' W 124°14'1918.7
2015-Jun-29 09:33N 48°27' W 124°40'1818.3
2015-Jun-29 08:33N 48°29' W 125°08'1818.5
2015-Jun-29 07:33N 48°36' W 125°33'1818.4
2015-Jun-29 06:33N 48°46' W 125°56'1918.7
2015-Jun-29 05:33N 48°58' W 126°19'1918.8
2015-Jun-29 04:33N 49°08' W 126°43'1918.8
2015-Jun-29 03:33N 49°21' W 127°04'1818.4
2015-Jun-29 02:33N 49°33' W 127°26'1919.2
2015-Jun-29 01:33N 49°45' W 127°49'2019.7
2015-Jun-29 00:30N 49°58' W 128°14'  
2015-Jun-22 11:19N 40°18' W 125°07'1520.2
2015-Jun-22 10:33N 40°04' W 124°59'2019.9
2015-Jun-22 09:32N 39°45' W 124°48'1919.4
2015-Jun-22 08:33N 39°27' W 124°38'1919.4
2015-Jun-22 07:33N 39°10' W 124°28'2619.9
2015-Jun-22 06:14N 38°46' W 124°15'1318.9
2015-Jun-22 05:33N 38°35' W 124°06'1818.2
2015-Jun-22 04:34N 38°22' W 123°50'1818.0
2015-Jun-22 03:34N 38°12' W 123°31'1616.0
2015-Jun-22 02:34N 38°03' W 123°14'2020.3
2015-Jun-22 01:34N 37°51' W 122°53'1515.0
2015-Jun-22 00:33N 37°47' W 122°35'8 8.2
2015-Jun-21 23:31N 37°48' W 122°24'0 0.0
2015-Jun-21 22:31N 37°48' W 122°24'0 0.0
2015-Jun-21 21:30N 37°48' W 122°24'0 0.0
2015-Jun-21 20:24N 37°48' W 122°24'0 0.0
2015-Jun-21 19:33N 37°48' W 122°24'0 0.0
2015-Jun-21 18:32N 37°48' W 122°24'0 0.0
2015-Jun-21 17:32N 37°48' W 122°24'0 0.0
2015-Jun-21 16:31N 37°48' W 122°24'0 0.0
2015-Jun-21 15:22N 37°48' W 122°24'0 0.0
2015-Jun-21 14:30N 37°48' W 122°24'0 0.0
2015-Jun-21 13:33N 37°48' W 122°24'3 2.6
2015-Jun-21 12:33N 37°49' W 122°27'1313.5
2015-Jun-21 11:33N 37°46' W 122°44'1413.8
2015-Jun-21 10:33N 37°52' W 122°59'1514.8
2015-Jun-21 09:33N 38°01' W 123°14'1615.8
2015-Jun-21 08:33N 38°11' W 123°30'1817.9
2015-Jun-21 07:33N 38°21' W 123°49'2120.6
2015-Jun-21 06:33N 38°36' W 124°07'10821.2
2015-Jun-21 01:29N 40°16' W 124°60'14720.8
2015-Jun-20 18:24N 42°43' W 125°07'1821.5
2015-Jun-20 17:33N 43°02' W 125°08'2121.0
2015-Jun-20 16:33N 43°22' W 125°09'2421.0
2015-Jun-20 15:23N 43°47' W 125°09'2821.3
2015-Jun-20 14:04N 44°15' W 125°10'1220.9
2015-Jun-20 13:30N 44°27' W 125°11'2020.8
2015-Jun-20 12:33N 44°46' W 125°12'2120.9
2015-Jun-20 11:33N 45°07' W 125°12'2121.0
2015-Jun-20 10:33N 45°28' W 125°13'2120.7
2015-Jun-20 09:33N 45°49' W 125°14'2121.0
2015-Jun-20 08:33N 46°10' W 125°15'2121.0
2015-Jun-20 07:33N 46°31' W 125°16'2121.1
2015-Jun-20 06:33N 46°52' W 125°17'2821.4
2015-Jun-20 05:15N 47°20' W 125°18'1921.5
2015-Jun-20 04:24N 47°38' W 125°18'1821.2
2015-Jun-20 03:32N 47°57' W 125°17'2121.3
2015-Jun-20 02:34N 48°17' W 125°10'  
Track history (hours):
 
Tides and Currents Weather Stations Pressure Air Temp Water Temp Dewpoint Dewpoint Depression Visibility Wind Speed Wind Dir Waves Ship Positions

Golden Princess

Operator: Princess Cruises

Last reported at 2015-Jun-30 02:33 UTC. Time now 2015-Jun-30 03:26 UTC.
Position N 48°08' W 125°16'.

Length 289.6 m; beam 36 m; draft 8.5 m.

Type: Ship. MMSI: 310344000.

Date/timePositionNaut miles runAvg speedWind from/ knotsBaromVisibWave heightAir tempDewpointWater temp
2015-Jun-30 02:33N 48°08' W 125°16'2120.9
2015-Jun-30 01:33N 48°28' W 125°05'2020.2
2015-Jun-30 00:33N 48°28' W 124°35'2020.1
2015-Jun-29 23:33N 48°20' W 124°07'1717.4
2015-Jun-29 22:33N 48°16' W 123°41'1212.1
2015-Jun-29 21:34N 48°22' W 123°25'3 3.3
2015-Jun-29 20:30N 48°25' W 123°24'0 0.0
2015-Jun-29 19:30N 48°25' W 123°24'0 0.0
2015-Jun-29 18:33N 48°25' W 123°24'0 0.0
2015-Jun-29 17:32N 48°25' W 123°24'0 0.0
2015-Jun-29 16:32N 48°25' W 123°24'0 0.0
2015-Jun-29 15:33N 48°25' W 123°24'0 0.0
2015-Jun-29 14:31N 48°25' W 123°24'0 0.2
2015-Jun-29 13:33N 48°25' W 123°24'9 8.6
2015-Jun-29 12:33N 48°16' W 123°26'1616.2
2015-Jun-29 11:33N 48°13' W 123°50'1717.4
2015-Jun-29 10:33N 48°20' W 124°14'1918.7
2015-Jun-29 09:33N 48°27' W 124°40'1818.3
2015-Jun-29 08:33N 48°29' W 125°08'1818.5
2015-Jun-29 07:33N 48°36' W 125°33'1818.4
2015-Jun-29 06:33N 48°46' W 125°56'1918.7
2015-Jun-29 05:33N 48°58' W 126°19'1918.8
2015-Jun-29 04:33N 49°08' W 126°43'1918.8
2015-Jun-29 03:33N 49°21' W 127°04'1818.4
2015-Jun-29 02:33N 49°33' W 127°26'1919.2
2015-Jun-29 01:33N 49°45' W 127°49'2019.7
2015-Jun-29 00:30N 49°58' W 128°14'  
2015-Jun-22 11:19N 40°18' W 125°07'1520.2
2015-Jun-22 10:33N 40°04' W 124°59'2019.9
2015-Jun-22 09:32N 39°45' W 124°48'1919.4
2015-Jun-22 08:33N 39°27' W 124°38'1919.4
2015-Jun-22 07:33N 39°10' W 124°28'2619.9
2015-Jun-22 06:14N 38°46' W 124°15'1318.9
2015-Jun-22 05:33N 38°35' W 124°06'1818.2
2015-Jun-22 04:34N 38°22' W 123°50'1818.0
2015-Jun-22 03:34N 38°12' W 123°31'1616.0
2015-Jun-22 02:34N 38°03' W 123°14'2020.3
2015-Jun-22 01:34N 37°51' W 122°53'1515.0
2015-Jun-22 00:33N 37°47' W 122°35'8 8.2
2015-Jun-21 23:31N 37°48' W 122°24'0 0.0
2015-Jun-21 22:31N 37°48' W 122°24'0 0.0
2015-Jun-21 21:30N 37°48' W 122°24'0 0.0
2015-Jun-21 20:24N 37°48' W 122°24'0 0.0
2015-Jun-21 19:33N 37°48' W 122°24'0 0.0
2015-Jun-21 18:32N 37°48' W 122°24'0 0.0
2015-Jun-21 17:32N 37°48' W 122°24'0 0.0
2015-Jun-21 16:31N 37°48' W 122°24'0 0.0
2015-Jun-21 15:22N 37°48' W 122°24'0 0.0
2015-Jun-21 14:30N 37°48' W 122°24'0 0.0
2015-Jun-21 13:33N 37°48' W 122°24'3 2.6
2015-Jun-21 12:33N 37°49' W 122°27'1313.5
2015-Jun-21 11:33N 37°46' W 122°44'1413.8
2015-Jun-21 10:33N 37°52' W 122°59'1514.8
2015-Jun-21 09:33N 38°01' W 123°14'1615.8
2015-Jun-21 08:33N 38°11' W 123°30'1817.9
2015-Jun-21 07:33N 38°21' W 123°49'2120.6
2015-Jun-21 06:33N 38°36' W 124°07'10821.2
2015-Jun-21 01:29N 40°16' W 124°60'14720.8
2015-Jun-20 18:24N 42°43' W 125°07'1821.5
2015-Jun-20 17:33N 43°02' W 125°08'2121.0
2015-Jun-20 16:33N 43°22' W 125°09'2421.0
2015-Jun-20 15:23N 43°47' W 125°09'2821.3
2015-Jun-20 14:04N 44°15' W 125°10'1220.9
2015-Jun-20 13:30N 44°27' W 125°11'2020.8
2015-Jun-20 12:33N 44°46' W 125°12'2120.9
2015-Jun-20 11:33N 45°07' W 125°12'2121.0
2015-Jun-20 10:33N 45°28' W 125°13'2120.7
2015-Jun-20 09:33N 45°49' W 125°14'2121.0
2015-Jun-20 08:33N 46°10' W 125°15'2121.0
2015-Jun-20 07:33N 46°31' W 125°16'2121.1
2015-Jun-20 06:33N 46°52' W 125°17'2821.4
2015-Jun-20 05:15N 47°20' W 125°18'1921.5
2015-Jun-20 04:24N 47°38' W 125°18'1821.2
2015-Jun-20 03:32N 47°57' W 125°17'2121.3
2015-Jun-20 02:34N 48°17' W 125°10'  

Dump ship's entire track history